createdAt,value
2023-04-10T00:00:33.228Z,20.50
2023-04-10T00:03:02.399Z,21.42
2023-04-10T00:05:29.644Z,17.15
2023-04-10T00:07:56.937Z,19.05
2023-04-10T00:10:26.470Z,17.83
2023-04-10T00:12:54.184Z,17.98
2023-04-10T00:15:21.485Z,18.45
2023-04-10T00:17:50.711Z,16.35
2023-04-10T00:20:17.864Z,14.93
2023-04-10T00:22:44.888Z,15.10
2023-04-10T00:25:11.997Z,16.15
2023-04-10T00:27:39.026Z,16.00
2023-04-10T00:30:07.567Z,20.02
2023-04-10T00:32:34.689Z,19.80
2023-04-10T00:35:01.854Z,18.38
2023-04-10T00:37:28.890Z,16.55
2023-04-10T00:39:56.389Z,17.30
2023-04-10T00:42:23.447Z,16.92
2023-04-10T00:44:50.714Z,17.45
2023-04-10T00:47:18.022Z,18.00
2023-04-10T00:49:45.424Z,17.88
2023-04-10T00:52:12.706Z,16.65
2023-04-10T00:54:40.326Z,15.32
2023-04-10T00:57:07.656Z,17.08
2023-04-10T00:59:35.683Z,18.13
2023-04-10T01:02:03.216Z,15.93
2023-04-10T01:04:32.030Z,11.57
2023-04-10T01:07:10.715Z,14.00
2023-04-10T01:09:48.179Z,11.27
2023-04-10T01:12:55.101Z,12.32
2023-04-10T01:15:26.557Z,14.68
2023-04-10T01:17:58.884Z,15.57
2023-04-10T01:20:31.942Z,18.52
2023-04-10T01:23:06.568Z,15.10
2023-04-10T01:25:47.480Z,17.75
2023-04-10T01:28:54.882Z,15.88
2023-04-10T01:31:31.334Z,18.33
2023-04-10T01:34:06.357Z,17.42
2023-04-10T01:36:38.252Z,18.02
2023-04-10T01:39:08.210Z,17.50
2023-04-10T01:41:36.259Z,18.85
2023-04-10T01:44:04.641Z,18.40
2023-04-10T01:46:32.991Z,17.98
2023-04-10T01:49:02.592Z,19.58
2023-04-10T01:51:31.483Z,19.23
2023-04-10T01:54:02.444Z,18.92
2023-04-10T01:56:30.216Z,18.48
2023-04-10T01:58:57.597Z,19.38
2023-04-10T02:01:29.770Z,19.92
2023-04-10T02:03:59.411Z,18.90
2023-04-10T02:06:32.042Z,20.38
2023-04-10T02:09:11.188Z,21.17
2023-04-10T02:11:45.093Z,21.85
2023-04-10T02:14:18.314Z,14.73
2023-04-10T02:16:45.769Z,18.25
2023-04-10T02:19:14.135Z,19.23
2023-04-10T02:21:44.613Z,24.20
2023-04-10T02:24:11.882Z,20.48
2023-04-10T02:26:49.330Z,17.45
2023-04-10T02:29:17.209Z,23.15
2023-04-10T02:31:45.966Z,19.85
2023-04-10T02:34:14.791Z,23.00
2023-04-10T02:36:41.924Z,19.80
2023-04-10T02:39:12.447Z,16.67
2023-04-10T02:41:47.633Z,17.90
2023-04-10T02:44:14.999Z,17.20
2023-04-10T02:46:43.183Z,16.08
2023-04-10T02:49:13.796Z,19.08
2023-04-10T02:51:41.109Z,18.25
2023-04-10T02:54:08.192Z,17.90
2023-04-10T02:56:36.594Z,18.88
2023-04-10T02:59:03.805Z,17.02
2023-04-10T03:01:32.184Z,14.80
2023-04-10T03:04:00.062Z,13.45
2023-04-10T03:06:31.626Z,14.73
2023-04-10T03:08:59.191Z,17.00
2023-04-10T03:11:27.707Z,18.65
2023-04-10T03:13:55.712Z,16.98
2023-04-10T03:16:23.146Z,16.67
2023-04-10T03:18:50.514Z,20.52
2023-04-10T03:21:17.678Z,20.88
2023-04-10T03:23:44.899Z,16.83
2023-04-10T03:26:12.096Z,18.15
2023-04-10T03:28:39.824Z,18.63
2023-04-10T03:31:10.777Z,17.52
2023-04-10T03:33:39.393Z,19.48
2023-04-10T03:36:07.593Z,16.13
2023-04-10T03:38:34.738Z,16.38
2023-04-10T03:41:02.624Z,17.35
2023-04-10T03:43:32.152Z,18.08
2023-04-10T03:46:01.839Z,17.25
2023-04-10T03:48:30.732Z,17.50
2023-04-10T03:50:58.490Z,18.27
2023-04-10T03:53:25.645Z,17.17
2023-04-10T03:55:54.345Z,24.98
2023-04-10T03:58:22.933Z,19.65
2023-04-10T04:00:51.605Z,14.45
2023-04-10T04:03:35.038Z,15.52
2023-04-10T04:06:22.134Z,16.50
2023-04-10T04:09:09.247Z,15.77
2023-04-10T04:11:46.870Z,17.58
2023-04-10T04:14:34.187Z,16.13
2023-04-10T04:17:21.355Z,18.88
2023-04-10T04:20:09.159Z,17.33
2023-04-10T04:22:43.669Z,18.45
2023-04-10T04:25:30.869Z,15.73
2023-04-10T04:28:05.868Z,15.10
2023-04-10T04:30:32.989Z,20.08
2023-04-10T04:33:11.619Z,16.15
2023-04-10T04:35:58.596Z,15.07
2023-04-10T04:38:38.866Z,14.30
2023-04-10T04:41:25.988Z,15.20
2023-04-10T04:44:06.822Z,15.93
2023-04-10T04:46:51.771Z,15.77
2023-04-10T04:49:18.784Z,14.60
2023-04-10T04:51:51.390Z,14.60
2023-04-10T04:54:38.379Z,15.25
2023-04-10T04:57:24.570Z,14.70
2023-04-10T05:00:12.053Z,13.27
2023-04-10T05:02:55.715Z,9.80
2023-04-10T05:05:35.735Z,13.98
2023-04-10T05:08:13.297Z,12.45
2023-04-10T05:11:00.591Z,13.52
2023-04-10T05:13:47.496Z,11.10
2023-04-10T05:16:23.925Z,12.32
2023-04-10T05:18:57.444Z,13.38
2023-04-10T05:21:44.552Z,12.32
2023-04-10T05:24:32.019Z,11.27
2023-04-10T05:27:12.448Z,12.85
2023-04-10T05:29:59.538Z,11.35
2023-04-10T05:32:46.704Z,11.07
2023-04-10T05:35:33.683Z,14.10
2023-04-10T05:38:13.969Z,10.40
2023-04-10T05:40:48.479Z,12.27
2023-04-10T05:43:35.694Z,9.23
2023-04-10T05:46:11.828Z,10.73
2023-04-10T05:48:49.100Z,11.48
2023-04-10T05:51:21.950Z,11.27
2023-04-10T05:54:06.618Z,12.80
2023-04-10T05:56:53.698Z,11.15
2023-04-10T05:59:37.667Z,11.80
2023-04-10T06:02:25.122Z,11.95
2023-04-10T06:04:52.491Z,9.85
2023-04-10T06:07:20.386Z,10.55
2023-04-10T06:09:47.604Z,11.60
2023-04-10T06:12:14.679Z,10.13
2023-04-10T06:14:42.632Z,10.20
2023-04-10T06:17:10.128Z,10.18
2023-04-10T06:19:37.241Z,8.88
2023-04-10T06:22:04.959Z,9.50
2023-04-10T06:24:32.371Z,8.27
2023-04-10T06:26:59.781Z,7.85
2023-04-10T06:29:26.873Z,7.63
2023-04-10T06:31:54.085Z,6.57
2023-04-10T06:34:21.671Z,6.60
2023-04-10T06:37:00.895Z,6.63
2023-04-10T06:39:27.955Z,5.78
2023-04-10T06:41:55.069Z,5.22
2023-04-10T06:44:32.597Z,6.85
2023-04-10T06:46:59.808Z,5.80
2023-04-10T06:49:26.893Z,5.22
2023-04-10T06:51:53.917Z,6.47
2023-04-10T06:54:21.140Z,5.80
2023-04-10T06:56:48.219Z,7.25
2023-04-10T06:59:15.860Z,6.20
2023-04-10T07:01:42.978Z,5.93
2023-04-10T07:04:10.184Z,5.40
2023-04-10T07:06:37.511Z,6.20
2023-04-10T07:09:04.574Z,5.88
2023-04-10T07:11:31.815Z,6.53
2023-04-10T07:13:59.043Z,5.90
2023-04-10T07:16:26.389Z,6.07
2023-04-10T07:18:53.909Z,6.00
2023-04-10T07:21:21.517Z,5.60
2023-04-10T07:23:49.225Z,6.30
2023-04-10T07:26:17.014Z,5.75
2023-04-10T07:28:44.409Z,5.95
2023-04-10T07:31:12.001Z,6.13
2023-04-10T07:33:39.743Z,6.00
2023-04-10T07:36:07.794Z,6.53
2023-04-10T07:38:35.741Z,7.38
2023-04-10T07:41:03.293Z,6.30
2023-04-10T07:43:30.726Z,7.57
2023-04-10T07:45:58.004Z,6.97
2023-04-10T07:48:25.577Z,6.63
2023-04-10T07:50:53.440Z,6.78
2023-04-10T07:53:20.886Z,7.10
2023-04-10T07:55:50.293Z,6.38
2023-04-10T07:58:17.380Z,7.72
2023-04-10T08:00:44.679Z,6.43
2023-04-10T08:03:13.727Z,7.28
2023-04-10T08:05:41.051Z,8.82
2023-04-10T08:08:08.015Z,7.15
2023-04-10T08:10:38.049Z,7.40
2023-04-10T08:13:06.207Z,7.15
2023-04-10T08:15:33.628Z,7.07
2023-04-10T08:18:00.822Z,8.25
2023-04-10T08:20:28.464Z,8.23
2023-04-10T08:22:58.880Z,7.68
2023-04-10T08:25:31.234Z,8.02
2023-04-10T08:28:00.540Z,8.50
2023-04-10T08:30:27.606Z,8.20
2023-04-10T08:32:54.639Z,9.50
2023-04-10T08:35:21.793Z,10.68
2023-04-10T08:37:53.587Z,11.80
2023-04-10T08:40:29.533Z,12.05
2023-04-10T08:42:56.768Z,11.38
2023-04-10T08:45:23.867Z,11.65
2023-04-10T08:47:53.244Z,13.73
2023-04-10T08:50:21.718Z,11.38
2023-04-10T08:52:53.084Z,11.57
2023-04-10T08:55:21.511Z,11.35
2023-04-10T08:57:58.043Z,11.93
2023-04-10T09:00:29.239Z,11.18
2023-04-10T09:02:58.557Z,12.63
2023-04-10T09:05:27.725Z,11.30
2023-04-10T09:07:55.242Z,10.82
2023-04-10T09:10:22.948Z,11.63
2023-04-10T09:12:50.489Z,11.15
2023-04-10T09:15:17.764Z,11.90
2023-04-10T09:18:04.729Z,12.43
2023-04-10T09:20:32.776Z,12.20
2023-04-10T09:22:59.897Z,12.57
2023-04-10T09:25:35.534Z,10.80
2023-04-10T09:28:05.678Z,14.00
2023-04-10T09:30:37.134Z,11.88
2023-04-10T09:33:20.717Z,12.63
2023-04-10T09:35:47.875Z,13.75
2023-04-10T09:38:20.600Z,13.30
2023-04-10T09:40:48.974Z,12.82
2023-04-10T09:43:19.966Z,12.05
2023-04-10T09:45:48.598Z,12.63
2023-04-10T09:48:16.231Z,12.30
2023-04-10T09:50:43.684Z,12.02
2023-04-10T09:53:13.028Z,12.95
2023-04-10T09:55:42.451Z,11.90
2023-04-10T09:58:11.092Z,13.00
2023-04-10T10:00:43.886Z,13.13
2023-04-10T10:03:15.461Z,13.77
2023-04-10T10:05:46.493Z,14.77
2023-04-10T10:08:15.009Z,13.40
2023-04-10T10:10:54.379Z,13.48
2023-04-10T10:13:42.522Z,12.88
2023-04-10T10:16:18.142Z,12.52
2023-04-10T10:18:54.150Z,15.70
2023-04-10T10:21:23.331Z,12.63
2023-04-10T10:23:54.253Z,14.43
2023-04-10T10:26:23.728Z,14.35
2023-04-10T10:28:53.760Z,13.27
2023-04-10T10:31:23.778Z,12.73
2023-04-10T10:33:52.873Z,13.10
2023-04-10T10:36:20.905Z,11.40
2023-04-10T10:38:59.893Z,15.25
2023-04-10T10:41:35.772Z,11.18
2023-04-10T10:44:12.735Z,12.85
2023-04-10T10:46:44.210Z,11.38
2023-04-10T10:49:11.259Z,10.60
2023-04-10T10:51:48.166Z,12.07
2023-04-10T10:54:34.233Z,10.68
2023-04-10T10:57:03.112Z,11.90
2023-04-10T10:59:49.990Z,10.38
2023-04-10T11:02:18.656Z,11.60
2023-04-10T11:04:47.652Z,12.30
2023-04-10T11:07:16.647Z,11.68
2023-04-10T11:09:50.581Z,11.65
2023-04-10T11:12:21.570Z,12.80
2023-04-10T11:15:06.317Z,12.50
2023-04-10T11:17:51.253Z,11.85
2023-04-10T11:20:22.039Z,12.38
2023-04-10T11:23:10.198Z,12.70
2023-04-10T11:25:54.699Z,10.63
2023-04-10T11:28:38.573Z,12.23
2023-04-10T11:31:22.967Z,11.35
2023-04-10T11:34:02.027Z,11.73
2023-04-10T11:36:29.711Z,11.38
2023-04-10T11:39:01.003Z,12.70
2023-04-10T11:41:30.647Z,12.10
2023-04-10T11:43:59.443Z,11.73
2023-04-10T11:46:26.851Z,11.57
2023-04-10T11:49:00.753Z,12.95
2023-04-10T11:51:28.526Z,12.05
2023-04-10T11:54:13.929Z,11.63
2023-04-10T11:56:43.327Z,11.57
2023-04-10T11:59:13.407Z,10.75
2023-04-10T12:01:43.123Z,12.20
2023-04-10T12:04:19.135Z,10.88
2023-04-10T12:06:48.901Z,11.68
2023-04-10T12:09:17.573Z,11.45
2023-04-10T12:12:03.724Z,12.63
2023-04-10T12:14:33.117Z,11.18
2023-04-10T12:17:01.502Z,11.38
2023-04-10T12:19:29.418Z,10.80
2023-04-10T12:21:58.329Z,11.73
2023-04-10T12:24:45.409Z,11.57
2023-04-10T12:27:20.968Z,11.93
2023-04-10T12:29:57.182Z,13.70
2023-04-10T12:32:25.749Z,10.82
2023-04-10T12:34:57.402Z,13.48
2023-04-10T12:37:25.974Z,12.52
2023-04-10T12:39:53.175Z,14.68
2023-04-10T12:42:22.843Z,13.60
2023-04-10T12:44:55.206Z,11.68
2023-04-10T12:47:23.290Z,13.60
2023-04-10T12:50:06.393Z,12.23
2023-04-10T12:52:34.453Z,12.07
2023-04-10T12:55:18.878Z,13.43
2023-04-10T12:57:47.769Z,11.45
2023-04-10T13:00:17.141Z,13.02
2023-04-10T13:02:44.801Z,12.35
2023-04-10T13:05:12.679Z,12.93
2023-04-10T13:07:41.226Z,11.95
2023-04-10T13:10:09.101Z,11.27
2023-04-10T13:12:38.006Z,11.73
2023-04-10T13:15:07.718Z,10.57
2023-04-10T13:17:35.435Z,11.75
2023-04-10T13:20:03.069Z,11.70
2023-04-10T13:22:30.052Z,11.60
2023-04-10T13:24:57.231Z,11.48
2023-04-10T13:27:24.249Z,10.48
2023-04-10T13:29:51.379Z,12.82
2023-04-10T13:32:18.429Z,11.05
2023-04-10T13:34:45.500Z,11.80
2023-04-10T13:37:13.778Z,10.90
2023-04-10T13:39:41.093Z,12.48
2023-04-10T13:42:08.164Z,11.82
2023-04-10T13:44:35.256Z,11.35
2023-04-10T13:47:02.420Z,12.43
2023-04-10T13:49:30.595Z,12.95
2023-04-10T13:51:58.224Z,11.95
2023-04-10T13:54:26.513Z,11.80
2023-04-10T13:56:55.134Z,10.40
2023-04-10T13:59:22.898Z,9.40
2023-04-10T14:01:53.050Z,10.50
2023-04-10T14:04:20.643Z,13.10
2023-04-10T14:06:48.560Z,11.15
2023-04-10T14:09:17.489Z,11.25
2023-04-10T14:11:44.769Z,12.27
2023-04-10T14:14:12.879Z,11.23
2023-04-10T14:16:40.432Z,9.57
2023-04-10T14:19:07.821Z,10.90
2023-04-10T14:21:35.460Z,11.10
2023-04-10T14:24:03.270Z,11.60
2023-04-10T14:26:31.730Z,10.45
2023-04-10T14:28:59.160Z,10.43
2023-04-10T14:31:29.443Z,12.65
2023-04-10T14:33:57.360Z,13.65
2023-04-10T14:36:24.976Z,11.05
2023-04-10T14:38:52.595Z,11.85
2023-04-10T14:41:21.042Z,11.43
2023-04-10T14:43:48.966Z,11.95
2023-04-10T14:46:16.286Z,13.57
2023-04-10T14:48:44.028Z,12.48
2023-04-10T14:51:13.385Z,11.45
2023-04-10T14:53:40.868Z,12.10
2023-04-10T14:56:12.458Z,12.90
2023-04-10T14:58:40.517Z,12.35
2023-04-10T15:01:10.788Z,13.73
2023-04-10T15:03:38.545Z,12.05
2023-04-10T15:06:07.343Z,12.95
2023-04-10T15:08:34.987Z,12.27
2023-04-10T15:11:05.526Z,12.38
2023-04-10T15:13:34.082Z,12.65
2023-04-10T15:16:01.516Z,13.30
2023-04-10T15:18:28.721Z,12.25
2023-04-10T15:20:56.147Z,12.32
2023-04-10T15:23:23.481Z,12.43
2023-04-10T15:25:51.245Z,11.73
2023-04-10T15:28:18.465Z,11.70
2023-04-10T15:30:45.532Z,12.93
2023-04-10T15:33:12.982Z,12.60
2023-04-10T15:35:40.258Z,12.30
2023-04-10T15:38:07.589Z,11.77
2023-04-10T15:40:37.055Z,14.07
2023-04-10T15:43:04.307Z,13.30
2023-04-10T15:45:31.413Z,13.25
2023-04-10T15:48:01.401Z,15.90
2023-04-10T15:50:28.747Z,13.55
2023-04-10T15:52:55.936Z,11.93
2023-04-10T15:55:23.112Z,12.90
2023-04-10T15:57:50.157Z,14.00
2023-04-10T16:00:17.909Z,14.05
2023-04-10T16:02:45.665Z,11.68
2023-04-10T16:05:13.158Z,13.73
2023-04-10T16:07:42.291Z,14.32
2023-04-10T16:10:09.904Z,11.23
2023-04-10T16:12:37.936Z,13.02
2023-04-10T16:15:08.204Z,13.88
2023-04-10T16:17:35.760Z,11.88
2023-04-10T16:20:07.634Z,12.40
2023-04-10T16:22:34.829Z,12.18
2023-04-10T16:27:32.356Z,12.65
2023-04-10T16:29:59.556Z,13.05
2023-04-10T16:32:26.762Z,12.98
2023-04-10T16:34:53.971Z,13.55
2023-04-10T16:37:21.031Z,11.82
2023-04-10T16:39:48.254Z,12.38
2023-04-10T16:42:15.385Z,11.77
2023-04-10T16:44:42.471Z,12.27
2023-04-10T16:47:09.585Z,14.45
2023-04-10T16:49:37.069Z,13.63
2023-04-10T16:52:04.057Z,13.50
2023-04-10T16:54:31.299Z,11.63
2023-04-10T16:56:58.371Z,13.38
2023-04-10T16:59:25.485Z,13.10
2023-04-10T17:01:52.672Z,14.48
2023-04-10T17:04:20.578Z,11.30
2023-04-10T17:06:47.831Z,13.93
2023-04-10T17:09:14.988Z,13.95
2023-04-10T17:11:42.315Z,13.57
2023-04-10T17:14:10.627Z,13.55
2023-04-10T17:16:37.828Z,11.15
2023-04-10T17:19:05.356Z,16.38
2023-04-10T17:21:32.543Z,13.27
2023-04-10T17:23:59.688Z,12.15
2023-04-10T17:26:26.793Z,11.27
2023-04-10T17:28:54.226Z,12.43
2023-04-10T17:31:21.559Z,13.57
2023-04-10T17:33:48.841Z,13.10
2023-04-10T17:36:16.012Z,12.43
2023-04-10T17:38:43.252Z,11.07
2023-04-10T17:41:13.784Z,13.88
2023-04-10T17:43:41.447Z,13.10
2023-04-10T17:46:14.613Z,11.68
2023-04-10T17:48:43.198Z,11.70
2023-04-10T17:51:12.026Z,11.75
2023-04-10T17:53:39.411Z,15.88
2023-04-10T17:56:07.061Z,16.20
2023-04-10T17:58:34.668Z,16.60
2023-04-10T18:01:01.965Z,15.23
2023-04-10T18:03:29.202Z,16.75
2023-04-10T18:05:56.482Z,14.70
2023-04-10T18:08:24.136Z,16.17
2023-04-10T18:10:51.183Z,15.27
2023-04-10T18:13:18.473Z,13.15
2023-04-10T18:15:46.079Z,14.95
2023-04-10T18:18:13.609Z,20.58
2023-04-10T18:20:41.080Z,17.77
2023-04-10T18:23:08.494Z,21.88
2023-04-10T18:25:36.216Z,22.60
2023-04-10T18:28:14.268Z,15.20
2023-04-10T18:30:43.623Z,17.20
2023-04-10T18:33:11.769Z,18.88
2023-04-10T18:35:39.282Z,14.70
2023-04-10T18:38:07.169Z,18.02
2023-04-10T18:40:36.951Z,17.80
2023-04-10T18:43:04.669Z,15.43
2023-04-10T18:45:34.630Z,14.90
2023-04-10T18:48:02.492Z,16.02
2023-04-10T18:50:31.000Z,15.73
2023-04-10T18:52:58.444Z,16.35
2023-04-10T18:55:26.128Z,15.27
2023-04-10T18:57:53.505Z,16.20
2023-04-10T19:00:21.180Z,16.77
2023-04-10T19:02:48.693Z,19.67
2023-04-10T19:05:17.013Z,18.77
2023-04-10T19:07:56.578Z,19.48
2023-04-10T19:10:30.636Z,20.88
2023-04-10T19:12:58.075Z,21.15
2023-04-10T19:15:25.809Z,19.90
2023-04-10T19:17:54.752Z,20.25
2023-04-10T19:20:49.279Z,18.88
2023-04-10T19:23:11.843Z,17.77
2023-04-10T19:25:39.165Z,16.42
2023-04-10T19:28:07.030Z,19.58
2023-04-10T19:30:34.582Z,17.02
2023-04-10T19:33:01.634Z,18.40
2023-04-10T19:35:28.872Z,17.33
2023-04-10T19:37:57.849Z,15.75
2023-04-10T19:40:25.541Z,16.42
2023-04-10T19:42:52.902Z,15.25
2023-04-10T19:45:22.297Z,16.02
2023-04-10T19:47:51.382Z,15.75
2023-04-10T19:50:19.636Z,17.55
2023-04-10T19:52:47.342Z,17.63
2023-04-10T19:55:16.926Z,18.25
2023-04-10T19:57:46.380Z,24.77
2023-04-10T20:00:14.932Z,22.98
2023-04-10T20:02:42.955Z,24.73
2023-04-10T20:05:11.330Z,20.27
2023-04-10T20:07:38.884Z,23.92
2023-04-10T20:10:06.754Z,21.48
2023-04-10T20:12:34.753Z,24.15
2023-04-10T20:15:03.994Z,20.85
2023-04-10T20:17:31.905Z,23.65
2023-04-10T20:19:59.399Z,23.52
2023-04-10T20:22:26.896Z,21.60
2023-04-10T20:24:54.477Z,21.33
2023-04-10T20:27:21.526Z,22.08
2023-04-10T20:29:48.613Z,21.50
2023-04-10T20:32:15.937Z,20.02
2023-04-10T20:34:43.052Z,17.92
2023-04-10T20:37:10.939Z,20.58
2023-04-10T20:39:38.428Z,22.45
2023-04-10T20:42:06.969Z,24.67
2023-04-10T20:44:38.010Z,20.40
2023-04-10T20:47:06.993Z,21.48
2023-04-10T20:49:34.240Z,22.67
2023-04-10T20:52:02.170Z,22.08
2023-04-10T20:54:29.956Z,19.08
2023-04-10T20:57:00.372Z,17.35
2023-04-10T20:59:28.377Z,17.23
2023-04-10T21:01:55.937Z,19.40
2023-04-10T21:04:23.162Z,18.73
2023-04-10T21:06:51.022Z,19.88
2023-04-10T21:09:18.314Z,19.40
2023-04-10T21:11:45.521Z,21.23
2023-04-10T21:14:13.525Z,19.67
2023-04-10T21:16:42.714Z,17.25
2023-04-10T21:19:09.955Z,16.90
2023-04-10T21:21:37.221Z,18.10
2023-04-10T21:24:04.718Z,17.30
2023-04-10T21:26:31.785Z,19.33
2023-04-10T21:28:58.878Z,20.33
2023-04-10T21:31:26.261Z,17.63
2023-04-10T21:33:53.322Z,18.13
2023-04-10T21:36:20.870Z,18.17
2023-04-10T21:38:48.085Z,16.98
2023-04-10T21:41:15.551Z,16.48
2023-04-10T21:43:43.261Z,15.07
2023-04-10T21:46:11.077Z,15.57
2023-04-10T21:48:38.319Z,15.32
2023-04-10T21:51:05.903Z,15.95
2023-04-10T21:53:33.000Z,23.67
2023-04-10T21:55:59.993Z,19.13
2023-04-10T21:58:27.181Z,17.13
2023-04-10T22:00:54.566Z,14.43
2023-04-10T22:03:22.391Z,14.60
2023-04-10T22:05:50.684Z,18.25
2023-04-10T22:08:20.010Z,19.40
2023-04-10T22:10:48.155Z,16.77
2023-04-10T22:13:27.351Z,17.73
2023-04-10T22:15:58.274Z,14.93
2023-04-10T22:18:25.478Z,16.45
2023-04-10T22:20:52.650Z,16.15
2023-04-10T22:23:19.745Z,15.40
2023-04-10T22:25:46.922Z,15.13
2023-04-10T22:28:14.461Z,14.65
2023-04-10T22:30:41.818Z,17.95
2023-04-10T22:33:08.976Z,18.27
2023-04-10T22:35:36.106Z,15.98
2023-04-10T22:38:04.214Z,17.55
2023-04-10T22:40:31.481Z,16.85
2023-04-10T22:42:58.562Z,19.02
2023-04-10T22:45:25.708Z,18.02
2023-04-10T22:47:52.768Z,14.98
2023-04-10T22:50:21.095Z,16.38
2023-04-10T22:52:48.221Z,16.00
2023-04-10T22:55:15.347Z,14.30
2023-04-10T22:57:42.501Z,12.60
2023-04-10T23:00:09.893Z,14.90
2023-04-10T23:02:37.186Z,18.48
2023-04-10T23:05:04.663Z,18.45
2023-04-10T23:07:31.795Z,18.98
2023-04-10T23:09:59.654Z,18.55
2023-04-10T23:12:27.116Z,18.67
2023-04-10T23:14:54.255Z,15.77
2023-04-10T23:17:21.335Z,18.90
2023-04-10T23:19:48.417Z,17.40
2023-04-10T23:22:15.641Z,16.92
2023-04-10T23:24:42.775Z,16.73
2023-04-10T23:27:09.932Z,15.45
2023-04-10T23:29:37.131Z,15.52
2023-04-10T23:32:04.252Z,14.63
2023-04-10T23:34:31.280Z,16.73
2023-04-10T23:36:58.344Z,19.27
2023-04-10T23:39:25.424Z,19.73
2023-04-10T23:41:52.803Z,21.60
2023-04-10T23:44:19.962Z,17.60
2023-04-10T23:46:47.082Z,18.25
2023-04-10T23:49:14.257Z,19.45
2023-04-10T23:51:41.301Z,19.27
2023-04-10T23:54:08.552Z,18.10
2023-04-10T23:56:35.527Z,18.17
2023-04-10T23:59:02.554Z,17.70
